createdAt,value
2023-02-25T00:01:13.331Z,43.15
2023-02-25T00:03:44.433Z,42.78
2023-02-25T00:06:36.426Z,43.31
2023-02-25T00:09:07.736Z,43.17
2023-02-25T00:11:43.620Z,42.96
2023-02-25T00:14:14.015Z,43.38
2023-02-25T00:16:42.858Z,42.99
2023-02-25T00:19:18.084Z,43.63
2023-02-25T00:21:45.726Z,43.25
2023-02-25T00:24:18.806Z,43.67
2023-02-25T00:26:46.249Z,43.70
2023-02-25T00:29:19.576Z,43.81
2023-02-25T00:31:47.133Z,43.60
2023-02-25T00:34:18.443Z,43.92
2023-02-25T00:36:53.194Z,43.75
2023-02-25T00:39:42.233Z,44.31
2023-02-25T00:42:13.048Z,43.99
2023-02-25T00:44:50.223Z,44.45
2023-02-25T00:47:22.451Z,44.28
2023-02-25T00:49:49.915Z,44.31
2023-02-25T00:52:42.605Z,44.30
2023-02-25T00:55:13.928Z,44.21
2023-02-25T00:57:50.015Z,44.41
2023-02-25T01:00:19.902Z,44.53
2023-02-25T01:02:49.935Z,44.32
2023-02-25T01:05:23.370Z,44.80
2023-02-25T01:08:00.290Z,44.97
2023-02-25T01:10:33.195Z,44.96
2023-02-25T01:13:08.019Z,44.12
2023-02-25T01:15:46.015Z,44.19
2023-02-25T01:18:31.458Z,44.44
2023-02-25T01:20:59.007Z,43.96
2023-02-25T01:23:30.579Z,44.27
2023-02-25T01:26:00.664Z,44.25
2023-02-25T01:28:37.439Z,44.54
2023-02-25T01:31:05.185Z,44.46
2023-02-25T01:33:38.850Z,44.25
2023-02-25T01:36:06.910Z,44.08
2023-02-25T01:38:34.646Z,44.43
2023-02-25T01:41:05.303Z,44.43
2023-02-25T01:43:39.847Z,43.79
2023-02-25T01:46:14.487Z,44.08
2023-02-25T01:48:49.814Z,44.02
2023-02-25T01:51:28.039Z,43.94
2023-02-25T01:54:23.055Z,43.89
2023-02-25T01:56:54.825Z,44.00
2023-02-25T01:59:30.926Z,43.83
2023-02-25T02:02:05.047Z,43.57
2023-02-25T02:04:41.306Z,43.58
2023-02-25T02:07:14.849Z,43.51
2023-02-25T02:09:56.168Z,43.50
2023-02-25T02:12:44.894Z,43.54
2023-02-25T02:15:15.960Z,43.13
2023-02-25T02:18:03.523Z,43.54
2023-02-25T02:21:08.902Z,43.50
2023-02-25T02:23:51.532Z,43.49
2023-02-25T02:26:39.762Z,43.32
2023-02-25T02:29:28.686Z,43.18
2023-02-25T02:32:20.415Z,43.02
2023-02-25T02:35:20.074Z,42.61
2023-02-25T02:38:15.316Z,42.79
2023-02-25T02:41:18.025Z,42.77
2023-02-25T02:44:02.021Z,42.74
2023-02-25T02:46:41.201Z,42.59
2023-02-25T02:49:35.027Z,42.95
2023-02-25T02:52:23.027Z,42.86
2023-02-25T02:55:13.608Z,42.78
2023-02-25T02:57:50.083Z,42.70
2023-02-25T03:00:40.952Z,42.70
2023-02-25T03:03:17.092Z,42.99
2023-02-25T03:05:49.471Z,42.81
2023-02-25T03:08:29.733Z,42.69
2023-02-25T03:10:59.190Z,42.60
2023-02-25T03:13:29.348Z,42.54
2023-02-25T03:16:00.408Z,42.43
2023-02-25T03:18:39.214Z,42.57
2023-02-25T03:21:30.225Z,42.70
2023-02-25T03:24:09.272Z,42.56
2023-02-25T03:26:47.327Z,42.42
2023-02-25T03:29:24.093Z,42.46
2023-02-25T03:31:55.077Z,42.59
2023-02-25T03:34:32.436Z,42.57
2023-02-25T03:37:16.342Z,42.71
2023-02-25T03:39:48.750Z,42.77
2023-02-25T03:42:27.703Z,42.72
2023-02-25T03:44:59.469Z,42.77
2023-02-25T03:47:34.825Z,42.95
2023-02-25T03:50:16.386Z,42.72
2023-02-25T03:52:48.473Z,42.42
2023-02-25T03:55:45.794Z,42.78
2023-02-25T03:58:19.221Z,42.99
2023-02-25T04:00:56.959Z,42.96
2023-02-25T04:03:32.156Z,43.00
2023-02-25T04:06:07.086Z,42.99
2023-02-25T04:08:38.429Z,43.12
2023-02-25T04:11:10.515Z,43.05
2023-02-25T04:13:44.073Z,42.99
2023-02-25T04:16:11.856Z,43.16
2023-02-25T04:18:42.717Z,43.39
2023-02-25T04:21:39.402Z,43.55
2023-02-25T04:24:18.285Z,43.39
2023-02-25T04:26:45.506Z,43.17
2023-02-25T04:29:18.589Z,43.27
2023-02-25T04:31:46.349Z,43.36
2023-02-25T04:34:13.725Z,43.42
2023-02-25T04:36:48.683Z,43.56
2023-02-25T04:39:20.921Z,43.43
2023-02-25T04:41:54.582Z,43.52
2023-02-25T04:44:29.724Z,43.55
2023-02-25T04:46:59.813Z,43.23
2023-02-25T04:49:30.170Z,43.41
2023-02-25T04:52:04.731Z,43.65
2023-02-25T04:54:36.722Z,43.41
2023-02-25T04:57:04.150Z,43.22
2023-02-25T04:59:31.509Z,43.15
2023-02-25T05:02:07.875Z,43.25
2023-02-25T05:04:39.755Z,43.41
2023-02-25T05:07:14.928Z,43.35
2023-02-25T05:09:42.573Z,43.68
2023-02-25T05:12:17.799Z,43.58
2023-02-25T05:14:51.509Z,43.61
2023-02-25T05:17:32.237Z,43.88
2023-02-25T05:20:15.045Z,43.61
2023-02-25T05:22:42.780Z,43.76
2023-02-25T05:25:15.317Z,43.95
2023-02-25T05:28:05.968Z,43.87
2023-02-25T05:30:43.493Z,44.25
2023-02-25T05:33:18.036Z,44.17
2023-02-25T05:35:53.788Z,44.20
2023-02-25T05:38:22.067Z,44.40
2023-02-25T05:40:49.881Z,44.98
2023-02-25T05:43:21.581Z,44.81
2023-02-25T05:46:02.737Z,44.79
2023-02-25T05:48:41.602Z,44.35
2023-02-25T05:51:22.804Z,44.55
2023-02-25T05:54:02.657Z,44.46
2023-02-25T05:56:32.301Z,44.44
2023-02-25T05:59:06.170Z,44.26
2023-02-25T06:01:41.377Z,44.73
2023-02-25T06:04:12.812Z,44.79
2023-02-25T06:06:57.400Z,44.82
2023-02-25T06:09:27.586Z,44.68
2023-02-25T06:12:02.486Z,44.88
2023-02-25T06:14:41.820Z,44.86
2023-02-25T06:17:18.155Z,44.69
2023-02-25T06:19:55.017Z,44.89
2023-02-25T06:22:37.272Z,44.72
2023-02-25T06:25:16.673Z,45.47
2023-02-25T06:27:59.677Z,45.09
2023-02-25T06:30:30.865Z,45.44
2023-02-25T06:33:07.791Z,45.26
2023-02-25T06:35:43.921Z,45.36
2023-02-25T06:38:20.436Z,45.47
2023-02-25T06:40:58.417Z,45.23
2023-02-25T06:43:35.298Z,45.44
2023-02-25T06:46:30.816Z,45.75
2023-02-25T06:49:01.763Z,45.86
2023-02-25T06:51:29.406Z,45.45
2023-02-25T06:53:58.745Z,45.22
2023-02-25T06:56:36.796Z,45.26
2023-02-25T06:59:14.402Z,45.26
2023-02-25T07:02:03.739Z,45.38
2023-02-25T07:05:06.176Z,45.25
2023-02-25T07:07:42.023Z,45.29
2023-02-25T07:10:22.910Z,45.25
2023-02-25T07:13:01.510Z,45.27
2023-02-25T07:15:39.884Z,44.90
2023-02-25T07:18:16.915Z,44.53
2023-02-25T07:21:18.908Z,44.63
2023-02-25T07:23:54.942Z,44.47
2023-02-25T07:26:33.684Z,44.44
2023-02-25T07:29:09.112Z,44.18
2023-02-25T07:31:48.895Z,44.12
2023-02-25T07:34:27.761Z,44.24
2023-02-25T07:37:10.878Z,44.24
2023-02-25T07:39:49.276Z,44.12
2023-02-25T07:42:20.703Z,44.33
2023-02-25T07:44:52.917Z,44.09
2023-02-25T07:47:32.024Z,44.13
2023-02-25T07:50:02.060Z,44.08
2023-02-25T07:52:46.439Z,44.00
2023-02-25T07:55:25.543Z,44.06
2023-02-25T07:57:59.412Z,43.91
2023-02-25T08:00:56.034Z,43.54
2023-02-25T08:03:26.616Z,43.80
2023-02-25T08:05:58.057Z,43.36
2023-02-25T08:08:28.629Z,43.44
2023-02-25T08:11:09.414Z,43.67
2023-02-25T08:13:44.099Z,43.59
2023-02-25T08:16:14.652Z,43.71
2023-02-25T08:18:47.951Z,45.16
2023-02-25T08:21:26.008Z,44.67
2023-02-25T08:23:54.460Z,44.75
2023-02-25T08:26:25.736Z,44.13
2023-02-25T08:29:05.518Z,44.31
2023-02-25T08:31:34.072Z,43.40
2023-02-25T08:34:13.542Z,44.08
2023-02-25T08:36:45.509Z,42.90
2023-02-25T08:39:16.963Z,42.70
2023-02-25T08:41:49.751Z,43.17
2023-02-25T08:44:23.962Z,42.81
2023-02-25T08:47:01.901Z,42.97
2023-02-25T08:49:45.582Z,42.85
2023-02-25T08:52:22.026Z,43.01
2023-02-25T08:54:54.238Z,42.81
2023-02-25T08:57:26.703Z,43.42
2023-02-25T09:00:05.579Z,42.70
2023-02-25T09:02:41.955Z,42.34
2023-02-25T09:05:20.809Z,42.31
2023-02-25T09:07:58.109Z,42.58
2023-02-25T09:10:48.219Z,42.58
2023-02-25T09:13:23.264Z,42.57
2023-02-25T09:16:03.045Z,42.45
2023-02-25T09:18:33.933Z,42.12
2023-02-25T09:21:04.600Z,42.49
2023-02-25T09:23:43.957Z,42.22
2023-02-25T09:26:23.893Z,42.56
2023-02-25T09:29:06.972Z,42.02
2023-02-25T09:31:43.560Z,41.79
2023-02-25T09:34:15.572Z,42.13
2023-02-25T09:37:07.511Z,41.92
2023-02-25T09:39:34.855Z,42.04
2023-02-25T09:42:18.390Z,42.20
2023-02-25T09:44:47.504Z,42.12
2023-02-25T09:47:32.611Z,41.92
2023-02-25T09:50:19.799Z,42.88
2023-02-25T09:53:10.297Z,41.55
2023-02-25T09:55:42.939Z,41.67
2023-02-25T09:58:26.529Z,41.46
2023-02-25T10:01:30.171Z,41.37
2023-02-25T10:04:13.373Z,41.74
2023-02-25T10:06:56.694Z,41.08
2023-02-25T10:09:37.796Z,41.38
2023-02-25T10:12:42.998Z,41.25
2023-02-25T10:15:29.058Z,41.24
2023-02-25T10:18:36.355Z,41.01
2023-02-25T10:27:51.064Z,40.96
2023-02-25T10:30:33.342Z,41.08
2023-02-25T10:33:20.980Z,40.70
2023-02-25T10:36:13.921Z,40.63
2023-02-25T10:39:04.485Z,40.67
2023-02-25T10:41:49.496Z,40.45
2023-02-25T10:44:20.405Z,40.34
2023-02-25T10:47:10.788Z,40.16
2023-02-25T10:49:40.753Z,40.27
2023-02-25T10:52:21.347Z,40.07
2023-02-25T10:54:52.129Z,39.92
2023-02-25T10:57:33.066Z,40.19
2023-02-25T11:00:06.736Z,40.21
2023-02-25T11:02:43.492Z,40.07
2023-02-25T11:05:41.328Z,39.96
2023-02-25T11:08:31.856Z,40.08
2023-02-25T11:11:25.687Z,39.76
2023-02-25T11:14:16.992Z,39.70
2023-02-25T11:16:46.096Z,40.11
2023-02-25T11:19:32.008Z,40.09
2023-02-25T11:22:06.765Z,39.98
2023-02-25T11:24:37.852Z,39.77
2023-02-25T11:27:08.442Z,39.10
2023-02-25T11:29:40.049Z,39.04
2023-02-25T11:32:22.902Z,38.59
2023-02-25T11:35:05.878Z,38.83
2023-02-25T11:37:51.039Z,38.74
2023-02-25T11:40:30.884Z,38.56
2023-02-25T11:43:21.178Z,38.26
2023-02-25T11:45:53.606Z,38.13
2023-02-25T11:48:48.167Z,38.03
2023-02-25T11:51:59.321Z,37.39
2023-02-25T11:54:39.999Z,37.64
2023-02-25T11:57:20.330Z,37.74
2023-02-25T12:00:16.845Z,37.19
2023-02-25T12:02:49.488Z,37.15
2023-02-25T12:06:03.700Z,36.97
2023-02-25T12:09:14.273Z,36.96
2023-02-25T12:12:20.332Z,36.63
2023-02-25T12:15:13.228Z,36.94
2023-02-25T12:17:58.479Z,37.41
2023-02-25T12:20:37.703Z,37.49
2023-02-25T12:23:36.748Z,36.63
2023-02-25T12:26:49.267Z,36.64
2023-02-25T12:29:56.814Z,35.86
2023-02-25T12:33:22.655Z,36.11
2023-02-25T12:36:04.890Z,36.14
2023-02-25T12:39:11.239Z,35.80
2023-02-25T12:42:21.516Z,36.02
2023-02-25T12:45:24.829Z,35.27
2023-02-25T12:48:31.468Z,35.59
2023-02-25T12:51:27.678Z,35.54
2023-02-25T12:54:09.161Z,35.17
2023-02-25T12:57:03.509Z,35.48
2023-02-25T12:59:59.435Z,35.52
2023-02-25T13:02:47.768Z,35.37
2023-02-25T13:05:46.050Z,35.49
2023-02-25T13:08:40.703Z,35.49
2023-02-25T13:12:10.100Z,35.71
2023-02-25T13:15:05.218Z,35.88
2023-02-25T13:17:57.909Z,35.65
2023-02-25T13:20:49.398Z,35.74
2023-02-25T13:23:51.091Z,36.09
2023-02-25T13:26:51.741Z,36.26
2023-02-25T13:29:47.068Z,36.08
2023-02-25T13:32:29.950Z,36.21
2023-02-25T13:35:22.030Z,36.38
2023-02-25T13:38:30.149Z,35.91
2023-02-25T13:41:21.724Z,36.03
2023-02-25T13:44:08.845Z,36.07
2023-02-25T13:47:07.710Z,36.06
2023-02-25T13:50:15.161Z,35.48
2023-02-25T13:53:19.972Z,35.12
2023-02-25T13:56:11.288Z,34.53
2023-02-25T13:58:49.585Z,34.56
2023-02-25T14:01:33.558Z,33.14
2023-02-25T14:04:24.709Z,33.06
2023-02-25T14:07:30.384Z,32.04
2023-02-25T14:10:35.061Z,31.23
2023-02-25T14:13:21.567Z,30.35
2023-02-25T14:16:04.407Z,30.47
2023-02-25T14:18:50.920Z,30.47
2023-02-25T14:21:48.621Z,30.44
2023-02-25T14:24:37.085Z,29.59
2023-02-25T14:27:26.012Z,30.13
2023-02-25T14:30:53.838Z,29.25
2023-02-25T14:33:50.205Z,28.94
2023-02-25T14:36:33.126Z,28.45
2023-02-25T14:39:18.228Z,29.97
2023-02-25T14:42:01.655Z,28.71
2023-02-25T14:44:51.071Z,28.51
2023-02-25T14:47:41.258Z,28.69
2023-02-25T14:50:28.045Z,28.41
2023-02-25T14:53:14.061Z,28.81
2023-02-25T14:56:08.860Z,27.39
2023-02-25T14:58:39.209Z,27.66
2023-02-25T15:01:45.025Z,26.98
2023-02-25T15:04:31.107Z,27.32
2023-02-25T15:07:37.739Z,27.32
2023-02-25T15:10:28.007Z,26.84
2023-02-25T15:13:31.227Z,27.38
2023-02-25T15:16:52.485Z,27.29
2023-02-25T15:19:45.690Z,27.44
2023-02-25T15:22:25.330Z,27.20
2023-02-25T15:25:32.092Z,27.97
2023-02-25T15:28:02.870Z,27.80
2023-02-25T15:31:07.074Z,27.58
2023-02-25T15:33:58.759Z,28.47
2023-02-25T15:36:49.529Z,27.14
2023-02-25T15:39:42.000Z,27.34
2023-02-25T15:42:25.294Z,27.88
2023-02-25T15:45:44.982Z,27.63
2023-02-25T15:48:17.542Z,28.43
2023-02-25T15:50:47.421Z,28.29
2023-02-25T15:53:30.314Z,27.73
2023-02-25T15:56:12.114Z,27.66
2023-02-25T15:59:00.365Z,28.18
2023-02-25T16:01:39.935Z,27.60
2023-02-25T16:04:43.354Z,28.24
2023-02-25T16:07:17.519Z,28.24
2023-02-25T16:09:57.533Z,28.26
2023-02-25T16:12:25.841Z,29.21
2023-02-25T16:14:55.617Z,28.95
2023-02-25T16:17:41.729Z,28.98
2023-02-25T16:20:17.891Z,29.06
2023-02-25T16:22:48.559Z,29.41
2023-02-25T16:25:20.093Z,29.77
2023-02-25T16:28:18.725Z,29.98
2023-02-25T16:31:07.360Z,30.00
2023-02-25T16:33:49.504Z,30.09
2023-02-25T16:36:28.985Z,29.94
2023-02-25T16:39:07.879Z,30.31
2023-02-25T16:41:38.464Z,30.56
2023-02-25T16:44:09.347Z,30.68
2023-02-25T16:46:39.716Z,30.64
2023-02-25T16:49:30.283Z,30.94
2023-02-25T16:51:58.577Z,31.07
2023-02-25T16:54:38.436Z,31.26
2023-02-25T16:57:09.942Z,31.10
2023-02-25T16:59:40.700Z,31.49
2023-02-25T17:02:17.278Z,31.32
2023-02-25T17:04:50.796Z,31.62
2023-02-25T17:07:22.650Z,31.40
2023-02-25T17:10:07.336Z,31.13
2023-02-25T17:12:45.997Z,31.34
2023-02-25T17:15:28.942Z,31.14
2023-02-25T17:18:17.083Z,31.48
2023-02-25T17:20:53.123Z,31.32
2023-02-25T17:23:23.573Z,32.57
2023-02-25T17:25:53.013Z,32.53
2023-02-25T17:28:31.109Z,32.84
2023-02-25T17:31:20.962Z,32.92
2023-02-25T17:33:57.738Z,33.04
2023-02-25T17:36:31.768Z,33.16
2023-02-25T17:39:08.010Z,33.12
2023-02-25T17:42:00.886Z,33.00
2023-02-25T17:44:44.311Z,33.29
2023-02-25T17:47:23.143Z,33.51
2023-02-25T17:49:54.118Z,33.39
2023-02-25T17:52:30.931Z,33.21
2023-02-25T17:55:06.171Z,32.97
2023-02-25T17:57:34.694Z,32.94
2023-02-25T18:00:40.058Z,32.75
2023-02-25T18:03:13.919Z,32.75
2023-02-25T18:06:00.136Z,31.85
2023-02-25T18:09:08.268Z,32.56
2023-02-25T18:11:40.091Z,32.49
2023-02-25T18:14:38.564Z,32.44
2023-02-25T18:17:27.566Z,32.47
2023-02-25T18:20:03.947Z,32.22
2023-02-25T18:22:46.222Z,32.13
2023-02-25T18:25:45.706Z,31.98
2023-02-25T18:28:24.771Z,32.30
2023-02-25T18:31:03.305Z,32.42
2023-02-25T18:33:34.412Z,32.41
2023-02-25T18:36:08.357Z,32.71
2023-02-25T18:38:45.452Z,32.58
2023-02-25T18:41:24.386Z,32.61
2023-02-25T18:43:55.236Z,32.35
2023-02-25T18:46:23.338Z,32.67
2023-02-25T18:48:51.665Z,32.49
2023-02-25T18:51:19.634Z,32.65
2023-02-25T18:53:50.493Z,32.21
2023-02-25T18:56:18.550Z,32.31
2023-02-25T18:58:46.089Z,32.29
2023-02-25T19:01:26.780Z,32.43
2023-02-25T19:04:00.738Z,32.25
2023-02-25T19:06:36.826Z,32.11
2023-02-25T19:09:07.593Z,32.02
2023-02-25T19:11:41.359Z,32.36
2023-02-25T19:14:09.347Z,32.53
2023-02-25T19:16:37.354Z,32.64
2023-02-25T19:19:05.616Z,32.32
2023-02-25T19:21:44.585Z,32.80
2023-02-25T19:24:17.026Z,32.14
2023-02-25T19:26:46.630Z,32.32
2023-02-25T19:29:15.036Z,31.93
2023-02-25T19:31:47.070Z,32.01
2023-02-25T19:34:27.629Z,31.90
2023-02-25T19:36:57.608Z,31.89
2023-02-25T19:39:25.074Z,32.00
2023-02-25T19:42:03.526Z,32.31
2023-02-25T19:44:36.962Z,32.47
2023-02-25T19:47:12.401Z,32.29
2023-02-25T19:49:43.098Z,32.92
2023-02-25T19:52:15.845Z,32.66
2023-02-25T19:54:49.121Z,32.82
2023-02-25T19:57:33.228Z,32.61
2023-02-25T20:00:15.294Z,32.21
2023-02-25T20:02:45.728Z,32.59
2023-02-25T20:05:31.523Z,32.75
2023-02-25T20:08:01.443Z,32.79
2023-02-25T20:10:43.649Z,32.63
2023-02-25T20:13:12.971Z,32.70
2023-02-25T20:15:43.607Z,32.96
2023-02-25T20:18:20.965Z,32.85
2023-02-25T20:20:50.685Z,32.94
2023-02-25T20:23:25.815Z,32.94
2023-02-25T20:26:05.935Z,33.01
2023-02-25T20:28:48.780Z,33.02
2023-02-25T20:31:29.930Z,33.32
2023-02-25T20:34:05.353Z,33.60
2023-02-25T20:36:54.535Z,33.68
2023-02-25T20:39:41.702Z,33.51
2023-02-25T20:42:21.100Z,33.47
2023-02-25T20:44:57.618Z,33.79
2023-02-25T20:47:43.096Z,33.85
2023-02-25T20:50:18.605Z,33.76
2023-02-25T20:52:48.924Z,33.54
2023-02-25T20:55:19.789Z,34.06
2023-02-25T20:57:48.137Z,33.88
2023-02-25T21:00:23.772Z,33.88
2023-02-25T21:02:57.384Z,33.99
2023-02-25T21:05:28.327Z,34.00
2023-02-25T21:08:02.489Z,34.29
2023-02-25T21:10:35.232Z,34.66
2023-02-25T21:13:12.719Z,34.76
2023-02-25T21:15:48.937Z,34.92
2023-02-25T21:18:24.042Z,35.12
2023-02-25T21:21:13.825Z,35.10
2023-02-25T21:23:49.740Z,35.47
2023-02-25T21:26:20.083Z,35.54
2023-02-25T21:29:02.806Z,35.72
2023-02-25T21:31:33.217Z,35.89
2023-02-25T21:34:05.073Z,35.87
2023-02-25T21:36:35.628Z,35.83
2023-02-25T21:39:17.418Z,36.04
2023-02-25T21:41:47.653Z,36.73
2023-02-25T21:44:21.153Z,36.28
2023-02-25T21:46:57.841Z,36.42
2023-02-25T21:49:35.619Z,36.11
2023-02-25T21:52:08.006Z,35.95
2023-02-25T21:54:47.319Z,36.41
2023-02-25T21:57:40.337Z,36.42
2023-02-25T22:00:11.337Z,36.27
2023-02-25T22:02:50.656Z,36.34
2023-02-25T22:05:27.485Z,36.48
2023-02-25T22:07:58.781Z,36.51
2023-02-25T22:10:37.810Z,36.82
2023-02-25T22:13:08.880Z,37.06
2023-02-25T22:15:50.095Z,37.01
2023-02-25T22:18:17.789Z,36.69
2023-02-25T22:20:51.790Z,36.89
2023-02-25T22:23:22.248Z,36.97
2023-02-25T22:26:09.541Z,37.00
2023-02-25T22:28:49.293Z,37.01
2023-02-25T22:31:31.736Z,36.98
2023-02-25T22:33:59.291Z,37.21
2023-02-25T22:36:39.667Z,37.27
2023-02-25T22:39:13.833Z,37.64
2023-02-25T22:41:54.229Z,37.73
2023-02-25T22:44:33.382Z,37.79
2023-02-25T22:47:08.508Z,38.04
2023-02-25T22:49:36.003Z,38.20
2023-02-25T22:52:12.695Z,38.16
2023-02-25T22:54:49.437Z,38.98
2023-02-25T23:00:25.482Z,38.50
2023-02-25T23:03:01.512Z,38.50
2023-02-25T23:05:32.353Z,38.78
2023-02-25T23:08:06.218Z,39.42
2023-02-25T23:10:36.938Z,39.08
2023-02-25T23:13:08.603Z,38.65
2023-02-25T23:15:41.596Z,39.29
2023-02-25T23:18:24.143Z,39.45
2023-02-25T23:20:56.939Z,39.54
2023-02-25T23:23:41.914Z,39.85
2023-02-25T23:26:15.088Z,39.78
2023-02-25T23:28:46.216Z,40.02
2023-02-25T23:31:24.694Z,41.17
2023-02-25T23:34:03.805Z,40.92
2023-02-25T23:36:34.191Z,41.66
2023-02-25T23:39:06.482Z,41.28
2023-02-25T23:41:37.165Z,42.53
2023-02-25T23:44:09.723Z,41.54
2023-02-25T23:46:38.255Z,42.21
2023-02-25T23:49:13.226Z,42.68
2023-02-25T23:51:49.608Z,43.38
2023-02-25T23:54:22.816Z,43.92
2023-02-25T23:56:58.107Z,43.67
2023-02-25T23:59:31.252Z,45.54
